Time;durP1;ratioP1;P1;durP2;ratioP2;P2;SDS_P1;SDS_P2;PMS_P1;PMS_P2;Temp;Humidity;BMP_temperature;BMP_pressure;BME280_temperature;BME280_humidity;BME280_pressure;Samples;Min_cycle;Max_cycle;Signal;HPM_P1;HPM_P2
2021/05/11 00:01:24;;;;;;;7.87;4.57;;;;;;;;;;4255126;33;20236;-56
2021/05/11 00:03:51;;;;;;;9.40;7.60;;;;;;;;;;4255291;33;20264;-55
2021/05/11 00:06:17;;;;;;;18.77;10.68;;;;;;;;;;4255000;33;20209;-55
2021/05/11 00:08:42;;;;;;;12.55;8.82;;;;;;;;;;4264085;33;20300;-56
2021/05/11 00:11:08;;;;;;;12.30;9.63;;;;;;;;;;4283280;33;20283;-56
2021/05/11 00:13:33;;;;;;;16.05;7.65;;;;;;;;;;4283563;33;20293;-57
2021/05/11 00:15:59;;;;;;;9.70;7.57;;;;;;;;;;4270325;33;20240;-56
2021/05/11 00:18:26;;;;;;;8.25;5.82;;;;;;;;;;4283598;33;20248;-56
2021/05/11 00:20:52;;;;;;;9.05;4.25;;;;;;;;;;4283355;33;20295;-56
2021/05/11 00:23:17;;;;;;;7.47;4.53;;;;;;;;;;4283599;33;20220;-54
2021/05/11 00:25:43;;;;;;;8.02;4.12;;;;;;;;;;4283424;33;20275;-56
2021/05/11 00:28:08;;;;;;;19.00;4.97;;;;;;;;;;4283805;33;20208;-55
2021/05/11 00:30:34;;;;;;;7.70;4.20;;;;;;;;;;4282151;33;20649;-56
2021/05/11 00:33:00;;;;;;;13.40;5.43;;;;;;;;;;4283526;33;20579;-56
2021/05/11 00:35:25;;;;;;;12.90;6.12;;;;;;;;;;4282140;33;20710;-56
2021/05/11 00:37:51;;;;;;;10.88;5.75;;;;;;;;;;4283549;33;20291;-56
2021/05/11 00:40:16;;;;;;;12.18;6.90;;;;;;;;;;4286096;33;20291;-57
2021/05/11 00:42:42;;;;;;;10.82;6.43;;;;;;;;;;4285156;33;20326;-66
2021/05/11 00:45:08;;;;;;;11.93;5.55;;;;;;;;;;4286000;33;20818;-66
2021/05/11 00:47:33;;;;;;;7.18;4.47;;;;;;;;;;4285990;33;20426;-66
2021/05/11 00:49:59;;;;;;;9.85;4.93;;;;;;;;;;4279322;33;20350;-55
2021/05/11 00:52:25;;;;;;;7.37;4.97;;;;;;;;;;4257725;33;20264;-55
2021/05/11 00:54:51;;;;;;;7.40;4.62;;;;;;;;;;4257439;33;20264;-55
2021/05/11 00:57:17;;;;;;;12.55;5.40;;;;;;;;;;4257515;33;20205;-55
2021/05/11 00:59:43;;;;;;;10.20;5.10;;;;;;;;;;4257394;33;20286;-57
2021/05/11 01:02:09;;;;;;;12.63;5.25;;;;;;;;;;4257498;33;20706;-56
2021/05/11 01:04:36;;;;;;;8.40;5.18;;;;;;;;;;4257455;33;20406;-55
2021/05/11 01:07:03;;;;;;;8.23;4.78;;;;;;;;;;4257438;33;20212;-67
2021/05/11 01:09:29;;;;;;;10.55;5.05;;;;;;;;;;4275138;33;20232;-56
2021/05/11 01:11:55;;;;;;;6.68;4.60;;;;;;;;;;4285564;33;20243;-56
2021/05/11 01:14:25;;;;;;;9.85;4.50;;;;;;;;;;4285519;33;20292;-67
2021/05/11 01:16:54;;;;;;;10.50;4.57;;;;;;;;;;4272194;33;20282;-67
2021/05/11 01:19:37;;;;;;;8.05;4.53;;;;;;;;;;4285465;33;20284;-55
2021/05/11 01:24:37;;;;;;;6.32;4.32;;;;;;;;;;4285485;33;20197;-56
2021/05/11 01:29:42;;;;;;;8.07;4.62;;;;;;;;;;4285627;33;20278;-67
2021/05/11 02:23:29;;;;;;;14.63;5.43;;;;;;;;;;4270577;33;20602;-56
2021/05/11 02:25:59;;;;;;;8.25;4.85;;;;;;;;;;4270283;33;20272;-56
2021/05/11 02:28:26;;;;;;;6.68;4.53;;;;;;;;;;4270297;33;20594;-56
2021/05/11 02:30:52;;;;;;;10.20;4.37;;;;;;;;;;4270327;33;20196;-56
2021/05/11 02:33:19;;;;;;;13.23;4.10;;;;;;;;;;4270481;33;20239;-55
2021/05/11 02:35:45;;;;;;;9.32;5.32;;;;;;;;;;4269164;33;20300;-56
2021/05/11 02:38:10;;;;;;;10.13;4.53;;;;;;;;;;4269970;33;20535;-56
2021/05/11 02:40:36;;;;;;;9.27;4.40;;;;;;;;;;4270525;33;20287;-56
2021/05/11 02:43:09;;;;;;;10.52;5.00;;;;;;;;;;4270182;33;20305;-55
2021/05/11 02:45:35;;;;;;;7.35;4.75;;;;;;;;;;4270167;33;20188;-54
2021/05/11 02:48:01;;;;;;;8.80;4.32;;;;;;;;;;4270181;33;20549;-55
2021/05/11 02:50:29;;;;;;;11.57;5.30;;;;;;;;;;4275207;33;20373;-56
2021/05/11 02:52:55;;;;;;;8.43;4.47;;;;;;;;;;4283363;33;20251;-56
2021/05/11 02:55:21;;;;;;;11.32;5.35;;;;;;;;;;4284505;33;20271;-55
2021/05/11 02:57:47;;;;;;;12.57;5.90;;;;;;;;;;4284312;33;20362;-57
2021/05/11 03:00:16;;;;;;;16.73;6.25;;;;;;;;;;4284234;33;20349;-56
2021/05/11 03:02:42;;;;;;;8.43;5.62;;;;;;;;;;4283772;33;20246;-56
2021/05/11 03:05:08;;;;;;;16.50;12.88;;;;;;;;;;4284078;33;20367;-55
2021/05/11 03:07:34;;;;;;;23.33;19.15;;;;;;;;;;4284372;33;20357;-56
2021/05/11 03:10:00;;;;;;;18.25;16.50;;;;;;;;;;4280485;33;20446;-56
2021/05/11 03:12:26;;;;;;;12.90;10.07;;;;;;;;;;4269954;33;20721;-55
2021/05/11 03:14:52;;;;;;;5.87;4.22;;;;;;;;;;4256541;33;20245;-55
2021/05/11 03:17:17;;;;;;;8.32;4.65;;;;;;;;;;4282842;33;20240;-56
2021/05/11 03:19:43;;;;;;;7.87;4.15;;;;;;;;;;4270884;33;20650;-55
2021/05/11 03:22:08;;;;;;;10.40;4.37;;;;;;;;;;4284049;33;20212;-56
2021/05/11 03:24:37;;;;;;;8.88;4.15;;;;;;;;;;4284043;33;20334;-56
2021/05/11 03:27:03;;;;;;;9.45;4.70;;;;;;;;;;4282511;33;20282;-56
2021/05/11 03:29:29;;;;;;;18.73;4.43;;;;;;;;;;4283901;33;20681;-56
2021/05/11 03:31:55;;;;;;;7.18;4.60;;;;;;;;;;4283941;33;20266;-56
2021/05/11 03:34:21;;;;;;;10.05;4.55;;;;;;;;;;4283954;33;20301;-55
2021/05/11 03:36:47;;;;;;;7.15;4.85;;;;;;;;;;4283924;33;20303;-55
2021/05/11 03:39:13;;;;;;;10.98;5.00;;;;;;;;;;4283597;33;20275;-56
2021/05/11 03:41:42;;;;;;;8.77;4.75;;;;;;;;;;4294754;33;20228;-55
2021/05/11 03:44:13;;;;;;;9.13;4.68;;;;;;;;;;4283492;33;20200;-55
2021/05/11 03:46:39;;;;;;;9.65;4.60;;;;;;;;;;4283810;33;20212;-65
2021/05/11 03:49:06;;;;;;;7.78;4.03;;;;;;;;;;4283546;33;20294;-68
2021/05/11 03:51:33;;;;;;;8.57;4.57;;;;;;;;;;4257705;33;20596;-55
2021/05/11 03:53:59;;;;;;;7.37;4.62;;;;;;;;;;4255278;33;20259;-55
2021/05/11 03:56:28;;;;;;;9.73;4.82;;;;;;;;;;4255118;33;20619;-55
2021/05/11 03:58:54;;;;;;;9.02;5.60;;;;;;;;;;4253932;33;20379;-57
2021/05/11 04:01:20;;;;;;;7.70;4.95;;;;;;;;;;4254938;33;20283;-70
2021/05/11 04:03:46;;;;;;;16.15;6.22;;;;;;;;;;4255411;33;20303;-69
2021/05/11 04:06:16;;;;;;;13.77;4.62;;;;;;;;;;4253820;33;20334;-70
2021/05/11 04:16:40;;;;;;;8.45;5.40;;;;;;;;;;4286394;33;20251;-55
2021/05/11 04:19:06;;;;;;;14.82;6.62;;;;;;;;;;4286395;33;20231;-55
2021/05/11 04:21:32;;;;;;;15.68;6.35;;;;;;;;;;4286706;33;20212;-56
2021/05/11 04:23:57;;;;;;;9.77;5.70;;;;;;;;;;4285285;33;20381;-55
2021/05/11 04:26:24;;;;;;;18.23;6.80;;;;;;;;;;4286215;33;20240;-55
2021/05/11 04:28:50;;;;;;;15.60;5.67;;;;;;;;;;4286481;33;20224;-69
2021/05/11 04:31:17;;;;;;;15.50;6.93;;;;;;;;;;4286507;33;20200;-70
2021/05/11 04:33:43;;;;;;;20.80;7.63;;;;;;;;;;4286369;33;20212;-68
2021/05/11 04:36:09;;;;;;;12.33;6.33;;;;;;;;;;4286123;33;20334;-55
2021/05/11 04:38:37;;;;;;;20.00;6.40;;;;;;;;;;4284974;33;20287;-56
2021/05/11 04:41:03;;;;;;;17.27;6.33;;;;;;;;;;4286133;33;20622;-69
2021/05/11 04:43:29;;;;;;;10.90;6.73;;;;;;;;;;4285787;33;20290;-69
2021/05/11 04:48:30;;;;;;;21.90;7.17;;;;;;;;;;4286320;33;20208;-68
2021/05/11 04:50:57;;;;;;;21.93;6.77;;;;;;;;;;4276970;33;20339;-67
2021/05/11 04:53:23;;;;;;;14.87;7.07;;;;;;;;;;4271855;33;20220;-70
2021/05/11 04:55:49;;;;;;;22.17;7.57;;;;;;;;;;4271633;33;20280;-68
2021/05/11 04:58:15;;;;;;;17.90;6.45;;;;;;;;;;4270580;33;20240;-68
2021/05/11 05:00:40;;;;;;;17.90;7.57;;;;;;;;;;4271644;33;20321;-66
2021/05/11 05:03:08;;;;;;;10.75;6.93;;;;;;;;;;4271550;33;20373;-67
2021/05/11 05:05:34;;;;;;;11.65;6.22;;;;;;;;;;4270197;33;20259;-67
2021/05/11 05:07:59;;;;;;;22.00;7.68;;;;;;;;;;4271725;33;20240;-68
2021/05/11 05:10:25;;;;;;;15.85;6.07;;;;;;;;;;4286113;33;20283;-68
2021/05/11 05:12:50;;;;;;;12.07;6.20;;;;;;;;;;4285482;33;20242;-54
2021/05/11 05:15:16;;;;;;;14.57;6.15;;;;;;;;;;4283907;33;20465;-55
2021/05/11 05:17:42;;;;;;;16.15;6.45;;;;;;;;;;4285843;33;20250;-68
2021/05/11 05:20:09;;;;;;;16.73;6.43;;;;;;;;;;4285963;33;20373;-55
2021/05/11 05:22:35;;;;;;;12.07;6.40;;;;;;;;;;4285849;33;20247;-55
2021/05/11 05:25:09;;;;;;;24.83;6.12;;;;;;;;;;4285123;33;20674;-55
2021/05/11 05:27:51;;;;;;;12.20;5.47;;;;;;;;;;4284600;33;20223;-55
2021/05/11 05:30:17;;;;;;;11.10;5.62;;;;;;;;;;4285641;33;20292;-67
2021/05/11 05:32:43;;;;;;;16.35;5.32;;;;;;;;;;4285244;33;20236;-54
2021/05/11 05:35:10;;;;;;;12.90;5.45;;;;;;;;;;4283058;33;20307;-56
2021/05/11 05:37:35;;;;;;;12.68;4.53;;;;;;;;;;4283577;33;20232;-55
2021/05/11 05:40:04;;;;;;;12.93;5.93;;;;;;;;;;4283847;33;20779;-55
2021/05/11 05:42:29;;;;;;;10.27;5.12;;;;;;;;;;4283582;33;20223;-54
2021/05/11 05:44:55;;;;;;;16.40;6.22;;;;;;;;;;4284334;33;20271;-53
2021/05/11 05:47:21;;;;;;;8.68;5.07;;;;;;;;;;4284509;33;20231;-54
2021/05/11 05:49:50;;;;;;;15.98;5.60;;;;;;;;;;4281141;33;20242;-54
2021/05/11 05:52:18;;;;;;;11.73;5.28;;;;;;;;;;4271012;33;20220;-54
2021/05/11 05:54:44;;;;;;;12.45;5.22;;;;;;;;;;4270845;33;20251;-54
2021/05/11 05:57:10;;;;;;;10.93;5.15;;;;;;;;;;4270894;33;20564;-55
2021/05/11 05:59:39;;;;;;;24.15;6.28;;;;;;;;;;4271015;33;20310;-56
2021/05/11 06:02:07;;;;;;;10.27;5.80;;;;;;;;;;4270821;33;20229;-55
2021/05/11 06:04:32;;;;;;;13.55;5.40;;;;;;;;;;4270736;33;20229;-55
2021/05/11 06:06:58;;;;;;;17.23;7.65;;;;;;;;;;4269334;33;20725;-54
2021/05/11 06:09:23;;;;;;;10.40;5.72;;;;;;;;;;4278985;33;20264;-53
2021/05/11 06:17:14;;;;;;;20.25;6.10;;;;;;;;;;4284700;33;20422;-68
2021/05/11 06:19:44;;;;;;;14.85;5.55;;;;;;;;;;4271251;33;20238;-69
2021/05/11 06:22:11;;;;;;;8.82;5.82;;;;;;;;;;4270654;33;20251;-68
2021/05/11 06:24:37;;;;;;;11.98;6.18;;;;;;;;;;4257506;33;20308;-67
2021/05/11 06:27:04;;;;;;;13.02;5.60;;;;;;;;;;4270209;33;20275;-70
2021/05/11 06:29:33;;;;;;;29.92;7.20;;;;;;;;;;4270073;33;20277;-69
2021/05/11 06:31:59;;;;;;;10.90;5.97;;;;;;;;;;4270343;33;20714;-54
2021/05/11 06:34:25;;;;;;;8.32;6.10;;;;;;;;;;4268890;33;20429;-55
2021/05/11 06:36:50;;;;;;;14.95;6.90;;;;;;;;;;4256392;33;20228;-55
2021/05/11 06:39:17;;;;;;;14.52;5.78;;;;;;;;;;4269940;33;20308;-55
2021/05/11 06:41:49;;;;;;;9.30;6.00;;;;;;;;;;4269866;33;20220;-55
2021/05/11 06:44:27;;;;;;;21.17;6.53;;;;;;;;;;4269388;33;20184;-55
2021/05/11 06:55:08;;;;;;;8.15;5.40;;;;;;;;;;4283273;33;20374;-54
2021/05/11 06:57:34;;;;;;;9.18;5.40;;;;;;;;;;4282776;33;20215;-54
2021/05/11 07:00:00;;;;;;;9.40;5.75;;;;;;;;;;4282652;33;20279;-68
2021/05/11 07:02:28;;;;;;;8.45;5.40;;;;;;;;;;4283134;33;20516;-69
2021/05/11 07:04:53;;;;;;;9.48;5.10;;;;;;;;;;4282853;33;20531;-69
2021/05/11 07:07:20;;;;;;;9.30;5.47;;;;;;;;;;4282750;33;20275;-71
2021/05/11 07:10:04;;;;;;;12.02;5.22;;;;;;;;;;4271648;33;20215;-69
2021/05/11 07:15:14;;;;;;;9.73;5.35;;;;;;;;;;4269993;33;20562;-70
2021/05/11 07:17:40;;;;;;;8.85;5.57;;;;;;;;;;4281635;33;20243;-69
2021/05/11 07:20:06;;;;;;;16.27;7.60;;;;;;;;;;4268521;33;20444;-68
2021/05/11 07:22:32;;;;;;;14.32;6.78;;;;;;;;;;4269276;33;20549;-68
2021/05/11 07:24:59;;;;;;;12.13;4.90;;;;;;;;;;4269544;33;20620;-66
2021/05/11 07:30:11;;;;;;;15.38;5.07;;;;;;;;;;4269070;33;20258;-66
2021/05/11 07:32:37;;;;;;;17.95;4.22;;;;;;;;;;4269086;33;20725;-67
2021/05/11 07:35:05;;;;;;;9.82;5.15;;;;;;;;;;4269122;33;20313;-67
2021/05/11 07:37:31;;;;;;;5.68;3.72;;;;;;;;;;4269433;33;20242;-68
2021/05/11 07:39:57;;;;;;;15.63;4.65;;;;;;;;;;4269009;33;20614;-66
2021/05/11 07:42:22;;;;;;;7.12;3.62;;;;;;;;;;4269050;33;20251;-53
2021/05/11 07:44:51;;;;;;;11.60;4.47;;;;;;;;;;4268974;33;20263;-54
2021/05/11 07:47:27;;;;;;;5.78;3.90;;;;;;;;;;4267544;33;20295;-53
2021/05/11 08:14:39;;;;;;;13.57;3.58;;;;;;;;;;4273003;33;20231;-54
2021/05/11 08:17:05;;;;;;;26.73;5.10;;;;;;;;;;4283373;33;20291;-53
2021/05/11 08:27:31;;;;;;;17.58;3.70;;;;;;;;;;4283817;33;20238;-68
2021/05/11 08:29:56;;;;;;;11.52;4.72;;;;;;;;;;4283713;33;20310;-67
2021/05/11 08:32:22;;;;;;;15.43;3.42;;;;;;;;;;4283576;33;20604;-68
2021/05/11 08:34:48;;;;;;;10.85;3.90;;;;;;;;;;4283714;33;20292;-68
2021/05/11 08:37:15;;;;;;;18.70;4.95;;;;;;;;;;4283677;33;20275;-68
2021/05/11 08:39:45;;;;;;;8.13;3.60;;;;;;;;;;4283460;33;20196;-68
2021/05/11 08:42:12;;;;;;;10.55;3.65;;;;;;;;;;4281956;33;20279;-68
2021/05/11 08:44:38;;;;;;;7.65;4.32;;;;;;;;;;4283405;33;20188;-67
2021/05/11 08:47:05;;;;;;;11.23;3.70;;;;;;;;;;4283382;33;20223;-67
2021/05/11 08:49:32;;;;;;;6.05;3.35;;;;;;;;;;4282958;33;20254;-66
2021/05/11 08:52:04;;;;;;;9.30;3.30;;;;;;;;;;4268970;33;20242;-65
2021/05/11 09:08:45;;;;;;;19.50;4.25;;;;;;;;;;4272942;33;20666;-67
2021/05/11 09:25:24;;;;;;;12.48;3.45;;;;;;;;;;4271373;33;20595;-67
2021/05/11 09:33:17;;;;;;;9.13;3.12;;;;;;;;;;4269871;33;20282;-67
2021/05/11 09:56:17;;;;;;;9.30;4.12;;;;;;;;;;4285207;33;20644;-54
2021/05/11 10:48:22;;;;;;;7.28;3.15;;;;;;;;;;4270172;33;20296;-53
2021/05/11 10:50:50;;;;;;;11.95;2.55;;;;;;;;;;4278243;33;20347;-54
2021/05/11 10:54:03;;;;;;;7.18;2.10;;;;;;;;;;4271778;33;20587;-54
2021/05/11 11:01:50;;;;;;;2.42;1.90;;;;;;;;;;4284322;33;20224;-53
2021/05/11 11:04:19;;;;;;;11.23;1.80;;;;;;;;;;4284378;33;20188;-54
2021/05/11 11:06:57;;;;;;;6.20;1.92;;;;;;;;;;4284229;33;20212;-54
2021/05/11 11:09:24;;;;;;;4.93;1.87;;;;;;;;;;4274584;33;20291;-54
2021/05/11 11:11:51;;;;;;;9.55;1.75;;;;;;;;;;4269843;33;20835;-54
2021/05/11 11:14:16;;;;;;;6.68;2.22;;;;;;;;;;4268558;33;20259;-54
2021/05/11 11:16:41;;;;;;;5.10;2.00;;;;;;;;;;4269674;33;20341;-54
2021/05/11 11:19:09;;;;;;;4.55;2.15;;;;;;;;;;4269640;33;20673;-54
2021/05/11 11:24:33;;;;;;;6.87;2.35;;;;;;;;;;4269811;33;20567;-54
2021/05/11 11:26:59;;;;;;;7.28;2.10;;;;;;;;;;4269837;33;20216;-53
2021/05/11 11:29:27;;;;;;;5.93;2.22;;;;;;;;;;4269491;33;20193;-54
2021/05/11 11:31:53;;;;;;;10.80;2.10;;;;;;;;;;4256829;33;20374;-54
2021/05/11 11:34:18;;;;;;;3.75;1.98;;;;;;;;;;4269945;33;20323;-55
2021/05/11 11:36:48;;;;;;;7.12;2.22;;;;;;;;;;4268432;33;20216;-54
2021/05/11 11:39:25;;;;;;;7.12;2.35;;;;;;;;;;4268758;33;20247;-54
2021/05/11 11:41:54;;;;;;;10.23;2.30;;;;;;;;;;4269694;33;20207;-54
2021/05/11 11:44:21;;;;;;;3.92;1.70;;;;;;;;;;4269894;33;20634;-55
2021/05/11 11:47:07;;;;;;;4.85;2.37;;;;;;;;;;4269690;33;20806;-55
2021/05/11 11:49:37;;;;;;;2.90;2.08;;;;;;;;;;4256706;33;20778;-54
2021/05/11 11:59:35;;;;;;;14.50;1.95;;;;;;;;;;4269629;33;20215;-54
2021/05/11 12:02:05;;;;;;;3.55;1.80;;;;;;;;;;4269288;33;20284;-54
2021/05/11 12:04:31;;;;;;;6.30;2.05;;;;;;;;;;4269346;33;20315;-55
2021/05/11 12:07:06;;;;;;;6.50;2.37;;;;;;;;;;4268315;33;20311;-54
2021/05/11 12:09:32;;;;;;;3.28;1.60;;;;;;;;;;4269498;33;20208;-54
2021/05/11 12:12:00;;;;;;;5.25;1.80;;;;;;;;;;4268877;33;20243;-54
2021/05/11 12:14:26;;;;;;;2.40;1.17;;;;;;;;;;4269177;33;20765;-54
2021/05/11 12:16:52;;;;;;;3.97;1.37;;;;;;;;;;4267815;33;20308;-54
2021/05/11 12:19:22;;;;;;;3.50;1.50;;;;;;;;;;4279591;33;20309;-55
2021/05/11 12:21:55;;;;;;;8.80;1.67;;;;;;;;;;4283454;33;20664;-54
2021/05/11 12:24:44;;;;;;;5.78;1.30;;;;;;;;;;4283698;33;20204;-54
2021/05/11 12:27:19;;;;;;;5.43;2.05;;;;;;;;;;4294438;33;20607;-55
2021/05/11 12:30:05;;;;;;;2.28;1.33;;;;;;;;;;4283392;33;20212;-54
2021/05/11 12:32:32;;;;;;;5.25;1.70;;;;;;;;;;4282271;33;20266;-54
2021/05/11 12:35:04;;;;;;;1.52;1.05;;;;;;;;;;4296446;33;20388;-54
2021/05/11 12:37:56;;;;;;;3.47;1.75;;;;;;;;;;4286302;33;20236;-54
2021/05/11 12:40:32;;;;;;;2.85;1.10;;;;;;;;;;4286283;33;20211;-54
2021/05/11 12:43:01;;;;;;;2.62;0.90;;;;;;;;;;4285132;33;20386;-54
2021/05/11 12:45:29;;;;;;;4.53;1.80;;;;;;;;;;4286217;33;20663;-54
2021/05/11 12:48:05;;;;;;;1.37;1.00;;;;;;;;;;4286481;33;20252;-54
2021/05/11 12:50:39;;;;;;;3.80;1.98;;;;;;;;;;4266613;33;20670;-54
2021/05/11 12:53:35;;;;;;;1.62;1.12;;;;;;;;;;4272080;33;20220;-54
2021/05/11 13:01:27;;;;;;;4.20;1.70;;;;;;;;;;4271885;33;20234;-55
2021/05/11 13:25:58;;;;;;;3.47;1.75;;;;;;;;;;4285986;33;20257;-54
2021/05/11 13:35:43;;;;;;;7.43;1.75;;;;;;;;;;4285676;33;20361;-62
2021/05/11 13:38:09;;;;;;;3.25;1.15;;;;;;;;;;4281502;33;20224;-62
2021/05/11 13:40:35;;;;;;;6.12;1.55;;;;;;;;;;4271174;33;20294;-63
2021/05/11 13:43:00;;;;;;;4.40;1.33;;;;;;;;;;4271046;33;20239;-63
2021/05/11 13:45:26;;;;;;;5.80;1.37;;;;;;;;;;4270915;33;20679;-62
2021/05/11 13:48:03;;;;;;;4.18;1.10;;;;;;;;;;4271267;33;20283;-62
2021/05/11 13:53:00;;;;;;;3.62;1.25;;;;;;;;;;4285217;33;20216;-62
2021/05/11 13:55:35;;;;;;;3.47;1.45;;;;;;;;;;4284303;33;20325;-63
2021/05/11 14:03:28;;;;;;;1.83;1.00;;;;;;;;;;4285111;33;20368;-62
2021/05/11 14:05:54;;;;;;;1.52;0.90;;;;;;;;;;4285175;33;20263;-62
2021/05/11 14:08:19;;;;;;;2.25;1.08;;;;;;;;;;4282496;33;20283;-62
2021/05/11 14:10:45;;;;;;;4.03;1.60;;;;;;;;;;4280261;33;20259;-62
2021/05/11 14:13:11;;;;;;;2.78;0.90;;;;;;;;;;4284078;33;20314;-62
2021/05/11 14:15:36;;;;;;;1.33;1.10;;;;;;;;;;4284488;33;20318;-62
2021/05/11 14:18:02;;;;;;;2.15;1.05;;;;;;;;;;4284823;33;20290;-55
2021/05/11 14:20:30;;;;;;;2.78;1.02;;;;;;;;;;4284774;33;20299;-55
2021/05/11 14:22:55;;;;;;;5.87;1.30;;;;;;;;;;4284774;33;20270;-56
2021/05/11 14:25:21;;;;;;;1.25;1.00;;;;;;;;;;4284765;33;20287;-56
2021/05/11 14:27:47;;;;;;;11.82;1.87;;;;;;;;;;4283538;33;20362;-57
2021/05/11 14:30:14;;;;;;;6.07;1.20;;;;;;;;;;4284570;33;20567;-56
2021/05/11 14:32:39;;;;;;;2.90;1.00;;;;;;;;;;4284925;33;20233;-56
2021/05/11 14:35:05;;;;;;;3.17;1.15;;;;;;;;;;4284647;33;20563;-55
2021/05/11 14:37:30;;;;;;;2.87;1.33;;;;;;;;;;4284853;33;20697;-56
2021/05/11 14:39:56;;;;;;;4.15;0.80;;;;;;;;;;4285261;33;20915;-55
2021/05/11 14:42:21;;;;;;;6.37;1.30;;;;;;;;;;4284607;33;20220;-55
2021/05/11 14:44:52;;;;;;;16.90;1.48;;;;;;;;;;4285105;33;20310;-61
2021/05/11 14:47:18;;;;;;;2.35;1.37;;;;;;;;;;4283532;33;20212;-61
2021/05/11 14:49:43;;;;;;;7.78;1.45;;;;;;;;;;4283148;33;20593;-62
2021/05/11 14:52:12;;;;;;;5.03;1.10;;;;;;;;;;4269188;33;20232;-62
2021/05/11 14:54:38;;;;;;;13.60;1.62;;;;;;;;;;4269042;33;20228;-61
2021/05/11 14:57:12;;;;;;;2.03;1.27;;;;;;;;;;4269557;33;20266;-62
2021/05/11 14:59:44;;;;;;;4.20;1.60;;;;;;;;;;4270077;33;20327;-61
2021/05/11 15:02:14;;;;;;;5.32;1.20;;;;;;;;;;4268720;33;20566;-62
2021/05/11 15:04:39;;;;;;;2.83;1.35;;;;;;;;;;4270340;33;20216;-61
2021/05/11 15:07:05;;;;;;;6.82;1.40;;;;;;;;;;4269923;33;20512;-62
2021/05/11 15:09:30;;;;;;;6.53;2.00;;;;;;;;;;4273202;33;20338;-61
2021/05/11 15:11:56;;;;;;;4.93;1.92;;;;;;;;;;4284348;33;20266;-62
2021/05/11 15:14:21;;;;;;;7.82;1.77;;;;;;;;;;4284382;33;20220;-61
2021/05/11 15:16:56;;;;;;;1.85;1.33;;;;;;;;;;4283900;33;20303;-61
2021/05/11 15:19:21;;;;;;;5.57;1.40;;;;;;;;;;4284134;33;20602;-62
2021/05/11 15:21:47;;;;;;;12.00;1.58;;;;;;;;;;4283850;33;20264;-62
2021/05/11 15:24:12;;;;;;;3.97;1.42;;;;;;;;;;4284355;33;20267;-60
2021/05/11 15:26:39;;;;;;;2.22;1.35;;;;;;;;;;4284043;33;20543;-62
2021/05/11 15:29:06;;;;;;;9.23;1.58;;;;;;;;;;4284066;33;20283;-62
2021/05/11 15:31:32;;;;;;;9.82;1.55;;;;;;;;;;4284029;33;20204;-61
2021/05/11 15:33:58;;;;;;;4.72;1.30;;;;;;;;;;4284012;33;20220;-62
2021/05/11 15:36:24;;;;;;;2.05;1.27;;;;;;;;;;4283597;33;20196;-61
2021/05/11 15:38:50;;;;;;;8.63;1.50;;;;;;;;;;4283792;33;20204;-61
2021/05/11 15:41:16;;;;;;;12.45;1.92;;;;;;;;;;4283505;33;20259;-61
2021/05/11 15:43:42;;;;;;;5.68;1.10;;;;;;;;;;4283817;33;20301;-62
2021/05/11 15:46:07;;;;;;;5.00;1.65;;;;;;;;;;4284437;33;20326;-62
2021/05/11 15:48:33;;;;;;;7.37;1.75;;;;;;;;;;4284657;33;20730;-57
2021/05/11 15:51:05;;;;;;;3.58;1.45;;;;;;;;;;4274346;33;20294;-57
2021/05/11 15:53:38;;;;;;;13.48;1.55;;;;;;;;;;4269731;33;20745;-57
2021/05/11 15:56:06;;;;;;;10.10;1.62;;;;;;;;;;4269128;33;20209;-56
2021/05/11 15:58:38;;;;;;;4.15;1.50;;;;;;;;;;4269520;33;20292;-55
2021/05/11 16:01:35;;;;;;;5.68;1.45;;;;;;;;;;4269615;33;20212;-56
2021/05/11 16:04:01;;;;;;;3.28;1.42;;;;;;;;;;4256160;33;20524;-55
2021/05/11 16:06:27;;;;;;;5.25;0.98;;;;;;;;;;4269036;33;20247;-56
2021/05/11 16:08:52;;;;;;;3.65;1.55;;;;;;;;;;4269098;33;20354;-56
2021/05/11 16:11:18;;;;;;;7.53;1.75;;;;;;;;;;4285241;33;22169;-56
2021/05/11 16:13:51;;;;;;;8.77;1.73;;;;;;;;;;4286181;33;20271;-56
2021/05/11 16:16:17;;;;;;;4.45;1.12;;;;;;;;;;4286365;33;20506;-63
2021/05/11 16:18:43;;;;;;;8.18;1.30;;;;;;;;;;4286505;33;20299;-55
2021/05/11 16:21:08;;;;;;;5.22;1.30;;;;;;;;;;4273204;33;20299;-56
2021/05/11 16:23:34;;;;;;;12.68;2.40;;;;;;;;;;4285368;33;20314;-56
2021/05/11 16:25:59;;;;;;;3.97;2.10;;;;;;;;;;4273039;33;20299;-56
2021/05/11 16:28:25;;;;;;;8.45;1.65;;;;;;;;;;4285372;33;20276;-56
2021/05/11 16:30:50;;;;;;;12.37;2.42;;;;;;;;;;4273132;33;20306;-56
2021/05/11 16:33:16;;;;;;;8.10;1.95;;;;;;;;;;4286373;33;20231;-56
2021/05/11 16:35:43;;;;;;;20.00;2.70;;;;;;;;;;4286136;33;20369;-55
2021/05/11 16:38:10;;;;;;;20.73;2.60;;;;;;;;;;4286478;33;20629;-63
2021/05/11 16:40:36;;;;;;;7.10;2.10;;;;;;;;;;4284644;33;20255;-63
2021/05/11 16:43:03;;;;;;;6.05;2.42;;;;;;;;;;4286213;33;20235;-64
2021/05/11 16:45:30;;;;;;;7.18;2.03;;;;;;;;;;4286161;33;20306;-64
2021/05/11 16:48:00;;;;;;;5.65;2.10;;;;;;;;;;4286252;33;20264;-55
2021/05/11 16:50:32;;;;;;;8.15;2.67;;;;;;;;;;4280270;33;20716;-55
2021/05/11 16:53:01;;;;;;;7.20;2.42;;;;;;;;;;4270717;33;20231;-55
2021/05/11 16:55:28;;;;;;;8.63;2.35;;;;;;;;;;4271471;33;20353;-56
2021/05/11 16:58:16;;;;;;;8.13;2.72;;;;;;;;;;4270764;33;20229;-56
2021/05/11 17:03:55;;;;;;;5.28;1.60;;;;;;;;;;4271757;33;20298;-56
2021/05/11 17:06:23;;;;;;;4.35;1.37;;;;;;;;;;4271636;33;20233;-55
2021/05/11 17:08:49;;;;;;;9.02;2.12;;;;;;;;;;4271789;33;20532;-56
2021/05/11 17:11:15;;;;;;;9.40;1.70;;;;;;;;;;4284322;33;20315;-56
2021/05/11 17:13:41;;;;;;;4.50;1.67;;;;;;;;;;4285465;33;20344;-56
2021/05/11 17:16:11;;;;;;;4.28;1.20;;;;;;;;;;4285249;33;20622;-56
2021/05/11 17:18:38;;;;;;;3.87;1.08;;;;;;;;;;4285614;33;20220;-56
2021/05/11 17:21:06;;;;;;;8.68;1.40;;;;;;;;;;4284756;33;20204;-56
2021/05/11 17:23:32;;;;;;;4.20;1.40;;;;;;;;;;4285573;33;20291;-55
2021/05/11 17:25:58;;;;;;;11.05;1.20;;;;;;;;;;4284122;33;20631;-56
2021/05/11 17:28:26;;;;;;;7.45;1.60;;;;;;;;;;4285324;33;20295;-55
2021/05/11 17:30:57;;;;;;;4.68;1.33;;;;;;;;;;4285615;33;20220;-56
2021/05/11 17:33:25;;;;;;;8.05;1.62;;;;;;;;;;4285750;33;20224;-56
2021/05/11 17:35:52;;;;;;;6.80;2.12;;;;;;;;;;4285212;33;20366;-56
2021/05/11 17:38:23;;;;;;;7.43;1.85;;;;;;;;;;4269743;33;20261;-55
2021/05/11 17:40:53;;;;;;;8.02;1.87;;;;;;;;;;4256831;33;20557;-56
2021/05/11 17:43:19;;;;;;;6.25;1.65;;;;;;;;;;4257153;33;20252;-56
2021/05/11 17:45:51;;;;;;;3.53;1.65;;;;;;;;;;4255713;33;20334;-56
2021/05/11 17:48:18;;;;;;;3.22;1.45;;;;;;;;;;4257019;33;20295;-55
2021/05/11 17:50:43;;;;;;;2.72;1.50;;;;;;;;;;4272067;33;20709;-56
2021/05/11 17:53:09;;;;;;;4.03;1.55;;;;;;;;;;4285417;33;20216;-56
2021/05/11 17:55:35;;;;;;;8.25;1.40;;;;;;;;;;4285231;33;20299;-64
2021/05/11 17:58:01;;;;;;;9.55;1.52;;;;;;;;;;4285151;33;20258;-64
2021/05/11 18:00:27;;;;;;;3.67;1.40;;;;;;;;;;4285130;33;20717;-65
2021/05/11 18:02:54;;;;;;;6.20;1.45;;;;;;;;;;4284088;33;20348;-64
2021/05/11 18:05:19;;;;;;;7.40;1.70;;;;;;;;;;4285411;33;20211;-64
2021/05/11 18:07:45;;;;;;;12.13;2.08;;;;;;;;;;4285181;33;20259;-64
2021/05/11 18:10:11;;;;;;;4.72;1.83;;;;;;;;;;4277953;33;20323;-57
2021/05/11 18:12:37;;;;;;;6.45;1.75;;;;;;;;;;4270664;33;20323;-55
2021/05/11 18:15:04;;;;;;;7.70;2.10;;;;;;;;;;4270256;33;20283;-55
2021/05/11 18:17:29;;;;;;;6.95;1.92;;;;;;;;;;4270448;33;20236;-55
2021/05/11 18:19:55;;;;;;;4.28;2.15;;;;;;;;;;4271311;33;20421;-56
2021/05/11 18:22:22;;;;;;;7.28;2.25;;;;;;;;;;4295679;33;20673;-54
2021/05/11 18:24:48;;;;;;;6.65;2.28;;;;;;;;;;4284802;33;20722;-64
2021/05/11 18:27:14;;;;;;;9.23;2.03;;;;;;;;;;4284950;33;20251;-64
2021/05/11 18:29:40;;;;;;;7.47;2.08;;;;;;;;;;4285165;33;20208;-66
2021/05/11 18:32:05;;;;;;;9.38;2.35;;;;;;;;;;4284587;33;20366;-64
2021/05/11 18:34:31;;;;;;;9.07;2.15;;;;;;;;;;4284889;33;20648;-65
2021/05/11 18:39:49;;;;;;;7.57;2.28;;;;;;;;;;4272698;33;20247;-55
2021/05/11 18:42:14;;;;;;;4.93;2.30;;;;;;;;;;4284292;33;20240;-64
2021/05/11 18:44:40;;;;;;;12.75;3.12;;;;;;;;;;4284357;33;20298;-65
2021/05/11 18:47:06;;;;;;;7.72;2.12;;;;;;;;;;4284572;33;20317;-65
2021/05/11 18:49:32;;;;;;;10.82;2.83;;;;;;;;;;4282249;33;20232;-66
2021/05/11 18:51:57;;;;;;;7.50;2.90;;;;;;;;;;4254953;33;20473;-56
2021/05/11 18:54:23;;;;;;;6.90;3.08;;;;;;;;;;4255855;33;20279;-57
2021/05/11 18:56:48;;;;;;;10.38;3.58;;;;;;;;;;4266289;33;20241;-56
2021/05/11 18:59:14;;;;;;;13.50;4.22;;;;;;;;;;4266382;33;20338;-56
2021/05/11 19:01:42;;;;;;;8.88;4.72;;;;;;;;;;4266327;33;20673;-56
2021/05/11 19:04:11;;;;;;;10.52;4.72;;;;;;;;;;4255712;33;20378;-64
2021/05/11 19:06:38;;;;;;;8.88;4.55;;;;;;;;;;4255785;33;20742;-65
2021/05/11 19:09:06;;;;;;;20.40;4.80;;;;;;;;;;4255968;33;20232;-66
2021/05/11 19:11:34;;;;;;;9.43;4.93;;;;;;;;;;4269508;33;20301;-65
2021/05/11 19:14:00;;;;;;;8.10;5.53;;;;;;;;;;4270714;33;20654;-65
2021/05/11 19:16:28;;;;;;;15.52;5.47;;;;;;;;;;4283727;33;20795;-65
2021/05/11 19:18:55;;;;;;;9.60;5.05;;;;;;;;;;4283922;33;20306;-65
2021/05/11 19:21:22;;;;;;;15.80;5.20;;;;;;;;;;4283753;33;20583;-66
2021/05/11 19:23:48;;;;;;;10.73;5.35;;;;;;;;;;4283708;33;20298;-66
2021/05/11 19:26:14;;;;;;;10.50;4.80;;;;;;;;;;4283627;33;20236;-65
2021/05/11 19:28:41;;;;;;;10.00;5.10;;;;;;;;;;4284242;33;20338;-64